Select Airport:
Chesapeake Regional Airport
Last updated: 21 minutes ago
Flight conditions: MVFR
Visibility: 10.0 statute miles
Sky Conditions:
   Broken clouds at 1800 feet
   Broken clouds at 2200 feet
   Broken clouds at 3200 feet
Wind From: 330°
Wind speed: 7 knots (8.05 mph)
Temperature: 11.5°C (52.7°F)
Dew Point: 7.6°C (45.68°F)
Altimiter setting: 30.02 in-hg
WX phone: 1-757-204-4290
WX freq: 123.675 MHz
Runway 5
   Crosswind component: 6.89 knots (7.93 mph)
   Headwind component: 1.22 knots (1.4 mph)
   NOTE - Close to a 90° crosswind. Active runway may change if wind shifts.
KCPK 131215Z AUTO 33007KT 10SM BKN018 BKN022 BKN032 12/08 A3002 RMK AO2 T01150076
FOR REFERENCE USE ONLY, DATA MAY NOT BE CURRENT.
ALWAYS CHECK FOR UP TO DATE INFORMATION.